Georgetown, SC

3:55 PM EDT on March 27, 2015 (GMT -0400)
Myrtle Beach International | | Change Station
CLOSE
Current Station
Airport
Location: Myrtle Beach,
Elevation: 26 ft
Nearby Weather Stations
Active Advisory: Freeze Watch

Elev 26 ft 33.68 °N, 78.93 °W | Updated 30 minutes ago

Overcast
Overcast
61 °F
Feels Like 61 °F
N
22
Wind Variable Wind from NW
Gusts 28 mph

Today
High -- | Low -- °F
--% Chance of Precip.
Yesterday
High -- | Low -- °F
Precip. -- in
7:11 AM 7:33 PM
First Quarter, 55% visible
Pressure 29.65 in
Visibility 2.5 miles
Clouds Mostly Cloudy 1300 ft
Overcast 5000 ft
Dew Point 52 °F
Humidity 72%
Rainfall 0.01 in
Snow Depth Not available.
UV 2 out of 12
Pollen 5.90 out of 12
Air Quality Not available.
Flu Activity Not available.
SPECI KMYR 271925Z 32019G24KT 2 1/2SM RA BR BKN013 OVC050 16/11 A2965

More Conditions Fewer Conditions

Pressure 29.65 in
Visibility 2.5 miles
Clouds Mostly Cloudy 1300 ft
Overcast 5000 ft
Dew Point 52 °F
Humidity 72%
Rainfall 0.01 in
Snow Depth Not available.
UV 2 out of 12
Pollen 5.90 out of 12
Air Quality Not available.
Flu Activity Not available.
SPECI KMYR 271925Z 32019G24KT 2 1/2SM RA BR BKN013 OVC050 16/11 A2965

More Conditions Fewer Conditions

10-Day Weather Forecast

Almanac

Astronomy

Mar. 27, 2015 Rise Set
Actual Time
Civil Twilight
Nautical Twilight
Astronomical Twilight
Moon
Length of Visible Light
Length of Day
Tomorrow will be .
, % of the Moon is Illuminated

Today's Extremes

State Highs State Lows

Community

WunderPhotos

Upload Photos

1,808,799 photos uploaded!

WunderBlogs® & News

Nearby

Air Quality

  Air Quality AQ Index Pollutant
Not available.

Snow Depth

Station Depth Elevation

Earthquake Activity

City Distance Mag. Time & Date
Minimum magnitude displayed is 2.5.

Coastal Water Temperatures

Place Temperature

Stations

Nearby Weather Stations

Station Location Temp. Windchill Dew Point Humidity Wind Precip. Elev Updated Type
                   
Freeze Watch
Statement as of 2:08 PM EDT on March 27, 2015

... Freeze watch in effect from late Saturday night through Sunday
morning...

The National Weather Service in Wilmington has issued a freeze
watch... which is in effect from late Saturday night through
Sunday morning.

* Temperatures... falling into the upper 20s inland to 32 degrees
at the beaches.

* Timing... late Saturday night into early Sunday morning.

* Impacts... cold sensitive vegetation such as potted plants and
certain crops could be damaged or killed.

Precautionary/preparedness actions...

A freeze watch means sub-freezing temperatures are possible.
These conditions could kill crops and other sensitive vegetation.



7